sensor_id;sensor_type;location;lat;lon;timestamp;P1;durP1;ratioP1;P2;durP2;ratioP2
15065;SDS011;7632;64.944;20.038;2023-08-17T00:01:53;1.60;;;0.90;;
15065;SDS011;7632;64.944;20.038;2023-08-17T00:04:20;3.72;;;0.93;;
15065;SDS011;7632;64.944;20.038;2023-08-17T00:06:46;5.47;;;1.03;;
15065;SDS011;7632;64.944;20.038;2023-08-17T00:09:13;1.80;;;1.07;;
15065;SDS011;7632;64.944;20.038;2023-08-17T00:11:40;1.73;;;0.90;;
15065;SDS011;7632;64.944;20.038;2023-08-17T00:14:08;4.37;;;1.10;;
15065;SDS011;7632;64.944;20.038;2023-08-17T00:16:35;4.37;;;1.07;;
15065;SDS011;7632;64.944;20.038;2023-08-17T00:19:02;1.90;;;0.90;;
15065;SDS011;7632;64.944;20.038;2023-08-17T00:21:29;0.90;;;0.90;;
15065;SDS011;7632;64.944;20.038;2023-08-17T00:23:55;2.10;;;1.10;;
15065;SDS011;7632;64.944;20.038;2023-08-17T00:26:22;4.10;;;1.27;;
15065;SDS011;7632;64.944;20.038;2023-08-17T00:28:50;5.70;;;0.90;;
15065;SDS011;7632;64.944;20.038;2023-08-17T00:31:18;3.13;;;0.90;;
15065;SDS011;7632;64.944;20.038;2023-08-17T00:33:50;1.53;;;1.10;;
15065;SDS011;7632;64.944;20.038;2023-08-17T00:36:17;1.40;;;1.00;;
15065;SDS011;7632;64.944;20.038;2023-08-17T00:38:44;3.30;;;1.00;;
15065;SDS011;7632;64.944;20.038;2023-08-17T00:41:11;2.03;;;1.00;;
15065;SDS011;7632;64.944;20.038;2023-08-17T00:43:37;2.93;;;0.90;;
15065;SDS011;7632;64.944;20.038;2023-08-17T00:46:04;4.03;;;1.10;;
15065;SDS011;7632;64.944;20.038;2023-08-17T00:48:32;1.50;;;1.00;;
15065;SDS011;7632;64.944;20.038;2023-08-17T00:50:59;2.53;;;1.00;;
15065;SDS011;7632;64.944;20.038;2023-08-17T00:53:27;10.43;;;1.63;;
15065;SDS011;7632;64.944;20.038;2023-08-17T00:55:57;3.83;;;1.10;;
15065;SDS011;7632;64.944;20.038;2023-08-17T00:58:25;2.20;;;0.80;;
15065;SDS011;7632;64.944;20.038;2023-08-17T01:00:53;3.03;;;1.03;;
15065;SDS011;7632;64.944;20.038;2023-08-17T01:03:20;1.50;;;0.90;;
15065;SDS011;7632;64.944;20.038;2023-08-17T01:05:49;2.67;;;1.10;;
15065;SDS011;7632;64.944;20.038;2023-08-17T01:08:16;5.23;;;1.40;;
15065;SDS011;7632;64.944;20.038;2023-08-17T01:10:44;1.47;;;1.10;;
15065;SDS011;7632;64.944;20.038;2023-08-17T01:13:18;3.70;;;1.63;;
15065;SDS011;7632;64.944;20.038;2023-08-17T01:15:51;2.70;;;1.10;;
15065;SDS011;7632;64.944;20.038;2023-08-17T01:18:22;3.20;;;1.00;;
15065;SDS011;7632;64.944;20.038;2023-08-17T01:20:53;1.87;;;1.00;;
15065;SDS011;7632;64.944;20.038;2023-08-17T01:23:23;2.60;;;1.03;;
15065;SDS011;7632;64.944;20.038;2023-08-17T01:25:55;2.53;;;1.00;;
15065;SDS011;7632;64.944;20.038;2023-08-17T01:28:22;4.93;;;0.93;;
15065;SDS011;7632;64.944;20.038;2023-08-17T01:30:49;4.40;;;1.17;;
15065;SDS011;7632;64.944;20.038;2023-08-17T01:33:23;2.83;;;0.90;;
15065;SDS011;7632;64.944;20.038;2023-08-17T01:35:55;0.90;;;0.90;;
15065;SDS011;7632;64.944;20.038;2023-08-17T01:38:31;4.90;;;1.00;;
15065;SDS011;7632;64.944;20.038;2023-08-17T01:41:00;1.57;;;0.93;;
15065;SDS011;7632;64.944;20.038;2023-08-17T01:43:28;4.30;;;1.00;;
15065;SDS011;7632;64.944;20.038;2023-08-17T01:45:56;3.47;;;1.00;;
15065;SDS011;7632;64.944;20.038;2023-08-17T01:48:23;2.10;;;1.17;;
15065;SDS011;7632;64.944;20.038;2023-08-17T01:50:49;2.30;;;1.40;;
15065;SDS011;7632;64.944;20.038;2023-08-17T01:53:16;4.93;;;0.90;;
15065;SDS011;7632;64.944;20.038;2023-08-17T01:55:44;3.80;;;1.07;;
15065;SDS011;7632;64.944;20.038;2023-08-17T01:58:11;2.33;;;1.10;;
15065;SDS011;7632;64.944;20.038;2023-08-17T02:00:37;4.80;;;1.00;;
15065;SDS011;7632;64.944;20.038;2023-08-17T02:03:04;0.90;;;0.90;;
15065;SDS011;7632;64.944;20.038;2023-08-17T02:05:31;1.27;;;0.80;;
15065;SDS011;7632;64.944;20.038;2023-08-17T02:07:57;2.80;;;0.97;;
15065;SDS011;7632;64.944;20.038;2023-08-17T02:10:24;3.33;;;0.80;;
15065;SDS011;7632;64.944;20.038;2023-08-17T02:12:52;1.27;;;1.17;;
15065;SDS011;7632;64.944;20.038;2023-08-17T02:15:19;2.17;;;1.10;;
15065;SDS011;7632;64.944;20.038;2023-08-17T02:17:46;2.63;;;1.00;;
15065;SDS011;7632;64.944;20.038;2023-08-17T02:20:12;1.73;;;1.10;;
15065;SDS011;7632;64.944;20.038;2023-08-17T02:22:39;1.67;;;1.03;;
15065;SDS011;7632;64.944;20.038;2023-08-17T02:25:06;0.80;;;0.80;;
15065;SDS011;7632;64.944;20.038;2023-08-17T02:27:34;1.67;;;1.10;;
15065;SDS011;7632;64.944;20.038;2023-08-17T02:30:02;6.20;;;1.37;;
15065;SDS011;7632;64.944;20.038;2023-08-17T02:32:29;4.50;;;1.20;;
15065;SDS011;7632;64.944;20.038;2023-08-17T02:34:55;1.20;;;1.10;;
15065;SDS011;7632;64.944;20.038;2023-08-17T02:37:22;3.73;;;1.20;;
15065;SDS011;7632;64.944;20.038;2023-08-17T02:39:49;2.77;;;1.00;;
15065;SDS011;7632;64.944;20.038;2023-08-17T02:42:15;0.80;;;0.80;;
15065;SDS011;7632;64.944;20.038;2023-08-17T02:44:42;1.17;;;1.07;;
15065;SDS011;7632;64.944;20.038;2023-08-17T02:47:10;1.47;;;0.87;;
15065;SDS011;7632;64.944;20.038;2023-08-17T02:49:37;2.70;;;1.00;;
15065;SDS011;7632;64.944;20.038;2023-08-17T02:52:04;3.70;;;1.33;;
15065;SDS011;7632;64.944;20.038;2023-08-17T02:54:31;3.20;;;1.30;;
15065;SDS011;7632;64.944;20.038;2023-08-17T02:56:57;3.33;;;1.10;;
15065;SDS011;7632;64.944;20.038;2023-08-17T02:59:25;4.17;;;1.10;;
15065;SDS011;7632;64.944;20.038;2023-08-17T03:01:52;2.40;;;1.10;;
15065;SDS011;7632;64.944;20.038;2023-08-17T03:04:21;2.20;;;1.10;;
15065;SDS011;7632;64.944;20.038;2023-08-17T03:06:47;2.40;;;1.20;;
15065;SDS011;7632;64.944;20.038;2023-08-17T03:09:14;7.97;;;1.37;;
15065;SDS011;7632;64.944;20.038;2023-08-17T03:11:41;2.97;;;0.90;;
15065;SDS011;7632;64.944;20.038;2023-08-17T03:14:08;4.27;;;1.30;;
15065;SDS011;7632;64.944;20.038;2023-08-17T03:16:34;1.23;;;1.13;;
15065;SDS011;7632;64.944;20.038;2023-08-17T03:19:01;3.07;;;1.17;;
15065;SDS011;7632;64.944;20.038;2023-08-17T03:21:29;5.13;;;1.10;;
15065;SDS011;7632;64.944;20.038;2023-08-17T03:23:56;3.60;;;1.03;;
15065;SDS011;7632;64.944;20.038;2023-08-17T03:26:22;1.60;;;0.80;;
15065;SDS011;7632;64.944;20.038;2023-08-17T03:28:49;2.27;;;1.20;;
15065;SDS011;7632;64.944;20.038;2023-08-17T03:31:16;1.37;;;0.90;;
15065;SDS011;7632;64.944;20.038;2023-08-17T03:33:43;1.60;;;1.20;;
15065;SDS011;7632;64.944;20.038;2023-08-17T03:36:09;1.00;;;0.97;;
15065;SDS011;7632;64.944;20.038;2023-08-17T03:38:37;3.77;;;1.07;;
15065;SDS011;7632;64.944;20.038;2023-08-17T03:41:04;3.90;;;1.00;;
15065;SDS011;7632;64.944;20.038;2023-08-17T03:43:31;4.20;;;1.20;;
15065;SDS011;7632;64.944;20.038;2023-08-17T03:45:57;1.47;;;1.20;;
15065;SDS011;7632;64.944;20.038;2023-08-17T03:48:24;4.60;;;1.40;;
15065;SDS011;7632;64.944;20.038;2023-08-17T03:50:51;1.00;;;0.90;;
15065;SDS011;7632;64.944;20.038;2023-08-17T03:53:18;4.13;;;1.10;;
15065;SDS011;7632;64.944;20.038;2023-08-17T03:55:47;2.47;;;1.20;;
15065;SDS011;7632;64.944;20.038;2023-08-17T03:58:14;4.00;;;1.17;;
15065;SDS011;7632;64.944;20.038;2023-08-17T04:00:41;0.97;;;0.97;;
15065;SDS011;7632;64.944;20.038;2023-08-17T04:03:08;5.93;;;1.17;;
15065;SDS011;7632;64.944;20.038;2023-08-17T04:05:34;3.27;;;1.00;;
15065;SDS011;7632;64.944;20.038;2023-08-17T04:08:01;1.27;;;1.17;;
15065;SDS011;7632;64.944;20.038;2023-08-17T04:10:28;4.93;;;1.37;;
15065;SDS011;7632;64.944;20.038;2023-08-17T04:12:57;5.63;;;1.40;;
15065;SDS011;7632;64.944;20.038;2023-08-17T04:15:23;1.63;;;1.10;;
15065;SDS011;7632;64.944;20.038;2023-08-17T04:17:50;2.83;;;1.20;;
15065;SDS011;7632;64.944;20.038;2023-08-17T04:20:17;6.30;;;1.60;;
15065;SDS011;7632;64.944;20.038;2023-08-17T04:22:44;2.70;;;1.30;;
15065;SDS011;7632;64.944;20.038;2023-08-17T04:25:11;4.60;;;1.50;;
15065;SDS011;7632;64.944;20.038;2023-08-17T04:27:38;5.13;;;1.30;;
15065;SDS011;7632;64.944;20.038;2023-08-17T04:30:07;1.93;;;1.30;;
15065;SDS011;7632;64.944;20.038;2023-08-17T04:32:35;5.07;;;1.20;;
15065;SDS011;7632;64.944;20.038;2023-08-17T04:35:02;4.10;;;1.00;;
15065;SDS011;7632;64.944;20.038;2023-08-17T04:37:28;1.87;;;0.90;;
15065;SDS011;7632;64.944;20.038;2023-08-17T04:39:55;4.77;;;1.20;;
15065;SDS011;7632;64.944;20.038;2023-08-17T04:42:22;2.47;;;1.20;;
15065;SDS011;7632;64.944;20.038;2023-08-17T04:44:49;2.50;;;1.13;;
15065;SDS011;7632;64.944;20.038;2023-08-17T04:47:18;2.73;;;1.23;;
15065;SDS011;7632;64.944;20.038;2023-08-17T04:49:44;3.33;;;1.00;;
15065;SDS011;7632;64.944;20.038;2023-08-17T04:52:11;2.90;;;1.10;;
15065;SDS011;7632;64.944;20.038;2023-08-17T04:54:37;2.50;;;1.07;;
15065;SDS011;7632;64.944;20.038;2023-08-17T04:57:04;5.33;;;1.33;;
15065;SDS011;7632;64.944;20.038;2023-08-17T04:59:31;5.55;;;1.48;;
15065;SDS011;7632;64.944;20.038;2023-08-17T05:01:58;1.93;;;1.17;;
15065;SDS011;7632;64.944;20.038;2023-08-17T05:04:26;2.90;;;1.10;;
15065;SDS011;7632;64.944;20.038;2023-08-17T05:06:52;6.25;;;1.40;;
15065;SDS011;7632;64.944;20.038;2023-08-17T05:09:19;3.53;;;1.20;;
15065;SDS011;7632;64.944;20.038;2023-08-17T05:11:46;1.50;;;1.30;;
15065;SDS011;7632;64.944;20.038;2023-08-17T05:14:12;2.37;;;1.30;;
15065;SDS011;7632;64.944;20.038;2023-08-17T05:16:39;4.50;;;1.20;;
15065;SDS011;7632;64.944;20.038;2023-08-17T05:19:06;4.80;;;1.67;;
15065;SDS011;7632;64.944;20.038;2023-08-17T05:21:34;3.80;;;1.37;;
15065;SDS011;7632;64.944;20.038;2023-08-17T05:24:02;2.42;;;1.35;;
15065;SDS011;7632;64.944;20.038;2023-08-17T05:26:29;1.98;;;1.20;;
15065;SDS011;7632;64.944;20.038;2023-08-17T05:28:56;2.20;;;1.50;;
15065;SDS011;7632;64.944;20.038;2023-08-17T05:31:23;4.03;;;1.50;;
15065;SDS011;7632;64.944;20.038;2023-08-17T05:33:49;3.80;;;1.90;;
15065;SDS011;7632;64.944;20.038;2023-08-17T05:36:16;2.83;;;1.73;;
15065;SDS011;7632;64.944;20.038;2023-08-17T05:38:44;4.17;;;1.70;;
15065;SDS011;7632;64.944;20.038;2023-08-17T05:41:11;2.33;;;2.13;;
15065;SDS011;7632;64.944;20.038;2023-08-17T05:43:38;3.53;;;2.20;;
15065;SDS011;7632;64.944;20.038;2023-08-17T05:46:04;3.80;;;1.90;;
15065;SDS011;7632;64.944;20.038;2023-08-17T05:48:32;6.32;;;2.00;;
15065;SDS011;7632;64.944;20.038;2023-08-17T05:50:59;7.53;;;2.27;;
15065;SDS011;7632;64.944;20.038;2023-08-17T05:53:25;4.90;;;2.13;;
15065;SDS011;7632;64.944;20.038;2023-08-17T05:55:53;5.00;;;2.00;;
15065;SDS011;7632;64.944;20.038;2023-08-17T05:58:20;2.08;;;1.88;;
15065;SDS011;7632;64.944;20.038;2023-08-17T06:00:47;7.97;;;2.50;;
15065;SDS011;7632;64.944;20.038;2023-08-17T06:03:14;7.17;;;2.10;;
15065;SDS011;7632;64.944;20.038;2023-08-17T06:05:41;3.38;;;1.75;;
15065;SDS011;7632;64.944;20.038;2023-08-17T06:08:14;3.95;;;1.92;;
15065;SDS011;7632;64.944;20.038;2023-08-17T06:10:41;3.30;;;1.65;;
15065;SDS011;7632;64.944;20.038;2023-08-17T06:13:09;9.55;;;1.90;;
15065;SDS011;7632;64.944;20.038;2023-08-17T06:15:36;1.50;;;1.40;;
15065;SDS011;7632;64.944;20.038;2023-08-17T06:18:02;3.08;;;1.30;;
15065;SDS011;7632;64.944;20.038;2023-08-17T06:20:30;2.88;;;1.80;;
15065;SDS011;7632;64.944;20.038;2023-08-17T06:22:56;3.88;;;1.40;;
15065;SDS011;7632;64.944;20.038;2023-08-17T06:25:23;1.23;;;1.13;;
15065;SDS011;7632;64.944;20.038;2023-08-17T06:27:51;1.25;;;1.15;;
15065;SDS011;7632;64.944;20.038;2023-08-17T06:30:19;4.60;;;1.30;;
15065;SDS011;7632;64.944;20.038;2023-08-17T06:32:46;1.85;;;1.13;;
15065;SDS011;7632;64.944;20.038;2023-08-17T06:35:12;1.42;;;1.10;;
15065;SDS011;7632;64.944;20.038;2023-08-17T06:37:39;1.38;;;1.20;;
15065;SDS011;7632;64.944;20.038;2023-08-17T06:40:06;3.80;;;1.20;;
15065;SDS011;7632;64.944;20.038;2023-08-17T06:42:34;4.15;;;1.50;;
15065;SDS011;7632;64.944;20.038;2023-08-17T06:45:01;1.77;;;1.23;;
15065;SDS011;7632;64.944;20.038;2023-08-17T06:47:29;1.58;;;1.17;;
15065;SDS011;7632;64.944;20.038;2023-08-17T06:49:56;7.60;;;1.30;;
15065;SDS011;7632;64.944;20.038;2023-08-17T06:52:23;5.78;;;1.20;;
15065;SDS011;7632;64.944;20.038;2023-08-17T06:54:49;1.58;;;0.95;;
15065;SDS011;7632;64.944;20.038;2023-08-17T06:57:16;4.70;;;1.45;;
15065;SDS011;7632;64.944;20.038;2023-08-17T06:59:43;2.10;;;1.20;;
15065;SDS011;7632;64.944;20.038;2023-08-17T07:02:11;2.67;;;1.23;;
15065;SDS011;7632;64.944;20.038;2023-08-17T07:04:39;2.75;;;1.55;;
15065;SDS011;7632;64.944;20.038;2023-08-17T07:07:05;3.75;;;1.48;;
15065;SDS011;7632;64.944;20.038;2023-08-17T07:09:32;4.30;;;1.60;;
15065;SDS011;7632;64.944;20.038;2023-08-17T07:11:59;3.55;;;1.40;;
15065;SDS011;7632;64.944;20.038;2023-08-17T07:14:26;2.72;;;1.30;;
15065;SDS011;7632;64.944;20.038;2023-08-17T07:16:53;4.03;;;1.50;;
15065;SDS011;7632;64.944;20.038;2023-08-17T07:19:19;2.45;;;1.30;;
15065;SDS011;7632;64.944;20.038;2023-08-17T07:21:47;3.17;;;1.33;;
15065;SDS011;7632;64.944;20.038;2023-08-17T07:24:15;2.78;;;1.30;;
15065;SDS011;7632;64.944;20.038;2023-08-17T07:26:49;1.73;;;1.30;;
15065;SDS011;7632;64.944;20.038;2023-08-17T07:29:15;4.22;;;1.42;;
15065;SDS011;7632;64.944;20.038;2023-08-17T07:31:42;2.28;;;1.42;;
15065;SDS011;7632;64.944;20.038;2023-08-17T07:34:09;3.25;;;1.25;;
15065;SDS011;7632;64.944;20.038;2023-08-17T07:36:35;2.75;;;1.40;;
15065;SDS011;7632;64.944;20.038;2023-08-17T07:39:04;2.08;;;1.40;;
15065;SDS011;7632;64.944;20.038;2023-08-17T07:41:31;3.63;;;1.70;;
15065;SDS011;7632;64.944;20.038;2023-08-17T07:43:57;7.18;;;1.55;;
15065;SDS011;7632;64.944;20.038;2023-08-17T07:46:24;5.55;;;1.52;;
15065;SDS011;7632;64.944;20.038;2023-08-17T07:48:51;4.40;;;1.45;;
15065;SDS011;7632;64.944;20.038;2023-08-17T07:51:18;3.15;;;1.23;;
15065;SDS011;7632;64.944;20.038;2023-08-17T07:53:44;2.03;;;1.30;;
15065;SDS011;7632;64.944;20.038;2023-08-17T07:56:13;1.77;;;1.15;;
15065;SDS011;7632;64.944;20.038;2023-08-17T07:58:39;2.85;;;1.13;;
15065;SDS011;7632;64.944;20.038;2023-08-17T08:01:06;3.45;;;1.42;;
15065;SDS011;7632;64.944;20.038;2023-08-17T08:03:33;3.40;;;1.40;;
15065;SDS011;7632;64.944;20.038;2023-08-17T08:06:00;1.42;;;1.02;;
15065;SDS011;7632;64.944;20.038;2023-08-17T08:08:26;3.67;;;1.30;;
15065;SDS011;7632;64.944;20.038;2023-08-17T08:10:53;3.72;;;1.73;;
15065;SDS011;7632;64.944;20.038;2023-08-17T08:13:21;2.83;;;1.35;;
15065;SDS011;7632;64.944;20.038;2023-08-17T08:15:48;2.60;;;1.20;;
15065;SDS011;7632;64.944;20.038;2023-08-17T08:18:15;1.30;;;1.20;;
15065;SDS011;7632;64.944;20.038;2023-08-17T08:20:42;2.38;;;1.02;;
15065;SDS011;7632;64.944;20.038;2023-08-17T08:23:08;4.20;;;1.00;;
15065;SDS011;7632;64.944;20.038;2023-08-17T08:25:35;1.70;;;1.02;;
15065;SDS011;7632;64.944;20.038;2023-08-17T08:28:02;1.77;;;1.17;;
15065;SDS011;7632;64.944;20.038;2023-08-17T08:30:30;1.40;;;1.30;;
15065;SDS011;7632;64.944;20.038;2023-08-17T08:32:57;4.78;;;1.20;;
15065;SDS011;7632;64.944;20.038;2023-08-17T08:35:25;4.25;;;1.45;;
15065;SDS011;7632;64.944;20.038;2023-08-17T08:37:52;6.30;;;1.40;;
15065;SDS011;7632;64.944;20.038;2023-08-17T08:40:20;3.13;;;1.00;;
15065;SDS011;7632;64.944;20.038;2023-08-17T08:42:53;0.95;;;0.85;;
15065;SDS011;7632;64.944;20.038;2023-08-17T08:45:20;2.22;;;0.90;;
15065;SDS011;7632;64.944;20.038;2023-08-17T08:47:49;1.08;;;0.98;;
15065;SDS011;7632;64.944;20.038;2023-08-17T08:50:18;2.67;;;1.13;;
15065;SDS011;7632;64.944;20.038;2023-08-17T08:52:49;1.13;;;1.00;;
15065;SDS011;7632;64.944;20.038;2023-08-17T08:55:21;3.17;;;0.98;;
15065;SDS011;7632;64.944;20.038;2023-08-17T08:57:52;4.00;;;1.15;;
15065;SDS011;7632;64.944;20.038;2023-08-17T09:00:20;2.28;;;1.08;;
15065;SDS011;7632;64.944;20.038;2023-08-17T09:02:49;2.67;;;0.82;;
15065;SDS011;7632;64.944;20.038;2023-08-17T09:05:17;1.00;;;0.80;;
15065;SDS011;7632;64.944;20.038;2023-08-17T09:07:45;2.13;;;1.00;;
15065;SDS011;7632;64.944;20.038;2023-08-17T09:10:14;1.33;;;0.98;;
15065;SDS011;7632;64.944;20.038;2023-08-17T09:12:42;4.53;;;0.88;;
15065;SDS011;7632;64.944;20.038;2023-08-17T09:15:09;1.45;;;0.90;;
15065;SDS011;7632;64.944;20.038;2023-08-17T09:17:36;1.38;;;0.93;;
15065;SDS011;7632;64.944;20.038;2023-08-17T09:20:06;0.80;;;0.80;;
15065;SDS011;7632;64.944;20.038;2023-08-17T09:22:37;1.33;;;0.80;;
15065;SDS011;7632;64.944;20.038;2023-08-17T09:25:05;1.38;;;0.90;;
15065;SDS011;7632;64.944;20.038;2023-08-17T09:27:33;1.13;;;0.88;;
15065;SDS011;7632;64.944;20.038;2023-08-17T09:30:03;4.00;;;1.10;;
15065;SDS011;7632;64.944;20.038;2023-08-17T09:32:31;2.08;;;1.08;;
15065;SDS011;7632;64.944;20.038;2023-08-17T09:35:00;4.35;;;1.33;;
15065;SDS011;7632;64.944;20.038;2023-08-17T09:37:29;1.38;;;0.90;;
15065;SDS011;7632;64.944;20.038;2023-08-17T09:39:56;1.13;;;0.90;;
15065;SDS011;7632;64.944;20.038;2023-08-17T09:42:23;2.47;;;1.00;;
15065;SDS011;7632;64.944;20.038;2023-08-17T09:44:51;2.35;;;1.17;;
15065;SDS011;7632;64.944;20.038;2023-08-17T09:47:18;1.10;;;1.00;;
15065;SDS011;7632;64.944;20.038;2023-08-17T09:49:47;1.00;;;0.80;;
15065;SDS011;7632;64.944;20.038;2023-08-17T09:52:15;1.63;;;0.85;;
15065;SDS011;7632;64.944;20.038;2023-08-17T09:54:43;1.02;;;0.80;;
15065;SDS011;7632;64.944;20.038;2023-08-17T09:57:12;1.65;;;0.88;;
15065;SDS011;7632;64.944;20.038;2023-08-17T09:59:39;2.83;;;0.70;;
15065;SDS011;7632;64.944;20.038;2023-08-17T10:02:08;2.05;;;1.15;;
15065;SDS011;7632;64.944;20.038;2023-08-17T10:04:42;0.77;;;0.77;;
15065;SDS011;7632;64.944;20.038;2023-08-17T10:07:10;1.58;;;0.90;;
15065;SDS011;7632;64.944;20.038;2023-08-17T10:09:42;1.77;;;0.80;;
15065;SDS011;7632;64.944;20.038;2023-08-17T10:12:13;1.48;;;0.90;;
15065;SDS011;7632;64.944;20.038;2023-08-17T10:14:45;1.00;;;0.85;;
15065;SDS011;7632;64.944;20.038;2023-08-17T10:17:21;0.75;;;0.75;;
15065;SDS011;7632;64.944;20.038;2023-08-17T10:19:52;0.90;;;0.80;;
15065;SDS011;7632;64.944;20.038;2023-08-17T10:22:25;0.85;;;0.82;;
15065;SDS011;7632;64.944;20.038;2023-08-17T10:24:58;1.98;;;1.13;;
15065;SDS011;7632;64.944;20.038;2023-08-17T10:27:26;2.38;;;0.90;;
15065;SDS011;7632;64.944;20.038;2023-08-17T10:29:53;0.70;;;0.70;;
15065;SDS011;7632;64.944;20.038;2023-08-17T10:32:21;2.15;;;0.90;;
15065;SDS011;7632;64.944;20.038;2023-08-17T10:34:49;2.30;;;1.10;;
15065;SDS011;7632;64.944;20.038;2023-08-17T10:37:18;2.47;;;0.80;;
15065;SDS011;7632;64.944;20.038;2023-08-17T10:39:46;2.00;;;0.93;;
15065;SDS011;7632;64.944;20.038;2023-08-17T10:42:16;1.83;;;0.90;;
15065;SDS011;7632;64.944;20.038;2023-08-17T10:44:57;1.95;;;1.05;;
15065;SDS011;7632;64.944;20.038;2023-08-17T10:47:26;1.23;;;0.90;;
15065;SDS011;7632;64.944;20.038;2023-08-17T10:49:55;0.80;;;0.80;;
15065;SDS011;7632;64.944;20.038;2023-08-17T10:52:27;0.93;;;0.93;;
15065;SDS011;7632;64.944;20.038;2023-08-17T10:54:54;1.38;;;0.80;;
15065;SDS011;7632;64.944;20.038;2023-08-17T10:57:27;1.02;;;0.98;;
15065;SDS011;7632;64.944;20.038;2023-08-17T11:00:14;1.30;;;1.00;;
15065;SDS011;7632;64.944;20.038;2023-08-17T11:02:44;2.25;;;0.80;;
15065;SDS011;7632;64.944;20.038;2023-08-17T11:05:12;0.80;;;0.80;;
15065;SDS011;7632;64.944;20.038;2023-08-17T11:07:39;1.40;;;0.95;;
15065;SDS011;7632;64.944;20.038;2023-08-17T11:10:26;0.70;;;0.70;;
15065;SDS011;7632;64.944;20.038;2023-08-17T11:12:56;2.08;;;0.88;;
15065;SDS011;7632;64.944;20.038;2023-08-17T11:15:26;0.75;;;0.70;;
15065;SDS011;7632;64.944;20.038;2023-08-17T11:18:02;1.83;;;0.90;;
15065;SDS011;7632;64.944;20.038;2023-08-17T11:20:30;1.58;;;0.90;;
15065;SDS011;7632;64.944;20.038;2023-08-17T11:22:57;1.38;;;0.90;;
15065;SDS011;7632;64.944;20.038;2023-08-17T11:25:24;1.88;;;1.00;;
15065;SDS011;7632;64.944;20.038;2023-08-17T11:27:52;0.85;;;0.80;;
15065;SDS011;7632;64.944;20.038;2023-08-17T11:30:21;3.97;;;0.90;;
15065;SDS011;7632;64.944;20.038;2023-08-17T11:32:48;1.23;;;0.95;;
15065;SDS011;7632;64.944;20.038;2023-08-17T11:35:15;3.40;;;0.90;;
15065;SDS011;7632;64.944;20.038;2023-08-17T11:37:42;3.28;;;0.90;;
15065;SDS011;7632;64.944;20.038;2023-08-17T11:40:10;1.05;;;0.73;;
15065;SDS011;7632;64.944;20.038;2023-08-17T11:42:37;3.25;;;1.20;;
15065;SDS011;7632;64.944;20.038;2023-08-17T11:45:04;1.92;;;0.88;;
15065;SDS011;7632;64.944;20.038;2023-08-17T11:47:35;1.30;;;1.00;;
15065;SDS011;7632;64.944;20.038;2023-08-17T11:50:02;2.25;;;1.00;;
15065;SDS011;7632;64.944;20.038;2023-08-17T11:52:30;2.72;;;1.23;;
15065;SDS011;7632;64.944;20.038;2023-08-17T11:54:57;0.80;;;0.80;;
15065;SDS011;7632;64.944;20.038;2023-08-17T11:57:24;1.90;;;0.73;;
15065;SDS011;7632;64.944;20.038;2023-08-17T11:59:52;2.03;;;1.15;;
15065;SDS011;7632;64.944;20.038;2023-08-17T12:02:19;1.20;;;0.73;;
15065;SDS011;7632;64.944;20.038;2023-08-17T12:04:55;1.27;;;1.10;;
15065;SDS011;7632;64.944;20.038;2023-08-17T12:07:23;2.63;;;1.00;;
15065;SDS011;7632;64.944;20.038;2023-08-17T12:09:50;2.42;;;0.90;;
15065;SDS011;7632;64.944;20.038;2023-08-17T12:12:19;1.83;;;1.23;;
15065;SDS011;7632;64.944;20.038;2023-08-17T12:14:47;2.47;;;0.90;;
15065;SDS011;7632;64.944;20.038;2023-08-17T12:17:14;1.15;;;0.80;;
15065;SDS011;7632;64.944;20.038;2023-08-17T12:19:41;1.10;;;0.82;;
15065;SDS011;7632;64.944;20.038;2023-08-17T12:22:10;0.93;;;0.73;;
15065;SDS011;7632;64.944;20.038;2023-08-17T12:24:39;1.02;;;0.90;;
15065;SDS011;7632;64.944;20.038;2023-08-17T12:27:06;2.75;;;0.80;;
15065;SDS011;7632;64.944;20.038;2023-08-17T12:29:33;2.45;;;0.90;;
15065;SDS011;7632;64.944;20.038;2023-08-17T12:32:00;1.65;;;0.90;;
15065;SDS011;7632;64.944;20.038;2023-08-17T12:34:27;3.30;;;0.98;;
15065;SDS011;7632;64.944;20.038;2023-08-17T12:36:54;0.70;;;0.70;;
15065;SDS011;7632;64.944;20.038;2023-08-17T12:39:22;2.42;;;0.88;;
15065;SDS011;7632;64.944;20.038;2023-08-17T12:41:49;0.80;;;0.80;;
15065;SDS011;7632;64.944;20.038;2023-08-17T12:44:16;1.88;;;0.80;;
15065;SDS011;7632;64.944;20.038;2023-08-17T12:46:42;1.83;;;0.65;;
15065;SDS011;7632;64.944;20.038;2023-08-17T12:49:09;2.30;;;0.95;;
15065;SDS011;7632;64.944;20.038;2023-08-17T12:51:36;2.15;;;0.90;;
15065;SDS011;7632;64.944;20.038;2023-08-17T12:54:03;0.80;;;0.80;;
15065;SDS011;7632;64.944;20.038;2023-08-17T12:56:31;1.40;;;0.80;;
15065;SDS011;7632;64.944;20.038;2023-08-17T12:58:58;2.38;;;1.05;;
15065;SDS011;7632;64.944;20.038;2023-08-17T13:01:24;0.63;;;0.63;;
15065;SDS011;7632;64.944;20.038;2023-08-17T13:03:51;1.75;;;0.70;;
15065;SDS011;7632;64.944;20.038;2023-08-17T13:06:18;0.65;;;0.65;;
15065;SDS011;7632;64.944;20.038;2023-08-17T13:08:44;1.02;;;0.80;;
15065;SDS011;7632;64.944;20.038;2023-08-17T13:11:11;3.65;;;0.90;;
15065;SDS011;7632;64.944;20.038;2023-08-17T13:13:39;2.20;;;0.73;;
15065;SDS011;7632;64.944;20.038;2023-08-17T13:16:06;0.70;;;0.70;;
15065;SDS011;7632;64.944;20.038;2023-08-17T13:18:33;0.80;;;0.80;;
15065;SDS011;7632;64.944;20.038;2023-08-17T13:21:06;1.20;;;0.80;;
15065;SDS011;7632;64.944;20.038;2023-08-17T13:23:33;0.90;;;0.90;;
15065;SDS011;7632;64.944;20.038;2023-08-17T13:26:00;0.95;;;0.90;;
15065;SDS011;7632;64.944;20.038;2023-08-17T13:28:26;1.58;;;1.00;;
15065;SDS011;7632;64.944;20.038;2023-08-17T13:30:54;2.30;;;0.90;;
15065;SDS011;7632;64.944;20.038;2023-08-17T13:33:21;2.92;;;1.20;;
15065;SDS011;7632;64.944;20.038;2023-08-17T13:35:48;2.38;;;1.00;;
15065;SDS011;7632;64.944;20.038;2023-08-17T13:38:16;3.50;;;1.00;;
15065;SDS011;7632;64.944;20.038;2023-08-17T13:40:42;4.82;;;1.05;;
15065;SDS011;7632;64.944;20.038;2023-08-17T13:43:09;2.67;;;0.73;;
15065;SDS011;7632;64.944;20.038;2023-08-17T13:45:38;0.73;;;0.70;;
15065;SDS011;7632;64.944;20.038;2023-08-17T13:48:07;1.35;;;1.00;;
15065;SDS011;7632;64.944;20.038;2023-08-17T13:50:34;3.83;;;1.10;;
15065;SDS011;7632;64.944;20.038;2023-08-17T13:53:05;3.30;;;1.02;;
15065;SDS011;7632;64.944;20.038;2023-08-17T13:55:31;1.95;;;0.95;;
15065;SDS011;7632;64.944;20.038;2023-08-17T13:57:58;1.08;;;0.98;;
15065;SDS011;7632;64.944;20.038;2023-08-17T14:00:25;2.50;;;0.88;;
15065;SDS011;7632;64.944;20.038;2023-08-17T14:02:52;0.95;;;0.95;;
15065;SDS011;7632;64.944;20.038;2023-08-17T14:05:20;3.45;;;0.98;;
15065;SDS011;7632;64.944;20.038;2023-08-17T14:07:47;1.75;;;0.90;;
15065;SDS011;7632;64.944;20.038;2023-08-17T14:10:14;0.85;;;0.85;;
15065;SDS011;7632;64.944;20.038;2023-08-17T14:12:41;0.93;;;0.80;;
15065;SDS011;7632;64.944;20.038;2023-08-17T14:15:08;1.35;;;0.80;;
15065;SDS011;7632;64.944;20.038;2023-08-17T14:17:35;1.83;;;0.80;;
15065;SDS011;7632;64.944;20.038;2023-08-17T14:20:02;5.70;;;1.02;;
15065;SDS011;7632;64.944;20.038;2023-08-17T14:22:31;0.98;;;0.90;;
15065;SDS011;7632;64.944;20.038;2023-08-17T14:24:57;2.45;;;0.98;;
15065;SDS011;7632;64.944;20.038;2023-08-17T14:27:24;1.52;;;1.00;;
15065;SDS011;7632;64.944;20.038;2023-08-17T14:29:51;1.33;;;1.08;;
15065;SDS011;7632;64.944;20.038;2023-08-17T14:32:18;1.15;;;0.82;;
15065;SDS011;7632;64.944;20.038;2023-08-17T14:34:45;0.70;;;0.70;;
15065;SDS011;7632;64.944;20.038;2023-08-17T14:37:11;0.90;;;0.90;;
15065;SDS011;7632;64.944;20.038;2023-08-17T14:39:39;0.82;;;0.82;;
15065;SDS011;7632;64.944;20.038;2023-08-17T14:42:06;0.95;;;0.75;;
15065;SDS011;7632;64.944;20.038;2023-08-17T14:44:33;0.73;;;0.73;;
15065;SDS011;7632;64.944;20.038;2023-08-17T14:46:59;3.08;;;0.90;;
15065;SDS011;7632;64.944;20.038;2023-08-17T14:49:26;2.80;;;0.82;;
15065;SDS011;7632;64.944;20.038;2023-08-17T14:51:53;0.63;;;0.63;;